Time;durP1;ratioP1;P1;durP2;ratioP2;P2;SDS_P1;SDS_P2;PMS_P1;PMS_P2;Temp;Humidity;BMP_temperature;BMP_pressure;BME280_temperature;BME280_humidity;BME280_pressure;Samples;Min_cycle;Max_cycle;Signal;HPM_P1;HPM_P2
2023/12/27 00:02:17;;;;;;;5.60;1.15;;;;;;;;;;4863016;29;20525;-81
2023/12/27 00:04:47;;;;;;;7.85;1.50;;;;;;;;;;4846487;29;20489;-80
2023/12/27 00:07:17;;;;;;;3.97;1.45;;;;;;;;;;4863169;29;20060;-82
2023/12/27 00:09:47;;;;;;;3.25;1.23;;;;;;;;;;4863676;29;20053;-79
2023/12/27 00:12:17;;;;;;;6.47;1.67;;;;;;;;;;4861766;29;20061;-80
2023/12/27 00:14:47;;;;;;;5.05;1.60;;;;;;;;;;4863546;29;20048;-80
2023/12/27 00:17:17;;;;;;;3.85;0.88;;;;;;;;;;4845529;29;20053;-79
2023/12/27 00:19:47;;;;;;;4.93;1.33;;;;;;;;;;4863546;29;20053;-82
2023/12/27 00:22:17;;;;;;;9.68;1.52;;;;;;;;;;4847014;29;20049;-80
2023/12/27 00:24:47;;;;;;;7.30;1.15;;;;;;;;;;4861256;29;20060;-80
2023/12/27 00:27:17;;;;;;;5.97;1.58;;;;;;;;;;4862407;29;20045;-80
2023/12/27 00:29:46;;;;;;;6.80;2.22;;;;;;;;;;4861946;29;20061;-80
2023/12/27 00:32:18;;;;;;;4.35;1.70;;;;;;;;;;4861233;29;20045;-79
2023/12/27 00:34:49;;;;;;;4.18;1.52;;;;;;;;;;4860883;29;20494;-81
2023/12/27 00:37:20;;;;;;;6.47;1.70;;;;;;;;;;4846213;29;20056;-80
2023/12/27 00:39:51;;;;;;;7.30;1.90;;;;;;;;;;4876280;29;20504;-82
2023/12/27 00:42:22;;;;;;;6.88;1.75;;;;;;;;;;4856438;29;20065;-82
2023/12/27 00:44:53;;;;;;;6.15;1.88;;;;;;;;;;4839608;29;20065;-81
2023/12/27 00:47:24;;;;;;;4.25;1.60;;;;;;;;;;4834829;29;20050;-82
2023/12/27 00:50:43;;;;;;;5.78;1.85;;;;;;;;;;4837175;29;20046;-81
2023/12/27 00:53:16;;;;;;;6.78;2.00;;;;;;;;;;4835501;29;20069;-81
2023/12/27 00:56:01;;;;;;;4.88;1.98;;;;;;;;;;4834455;29;20057;-83
2023/12/27 00:58:41;;;;;;;6.35;1.73;;;;;;;;;;4831056;29;20054;-81
2023/12/27 01:01:13;;;;;;;4.90;2.05;;;;;;;;;;4845142;29;20420;-80
2023/12/27 01:03:43;;;;;;;4.50;1.20;;;;;;;;;;4830459;29;20046;-81
2023/12/27 01:06:14;;;;;;;3.40;1.95;;;;;;;;;;4842052;29;20057;-82
2023/12/27 01:08:45;;;;;;;5.43;1.70;;;;;;;;;;4815876;29;20118;-80
2023/12/27 01:11:16;;;;;;;6.95;2.08;;;;;;;;;;4821023;29;20050;-82
2023/12/27 01:13:46;;;;;;;7.18;2.15;;;;;;;;;;4835974;29;20054;-81
2023/12/27 01:16:17;;;;;;;6.28;2.03;;;;;;;;;;4835760;29;20061;-82
2023/12/27 01:18:47;;;;;;;6.40;2.08;;;;;;;;;;4835995;29;20530;-80
2023/12/27 01:21:18;;;;;;;9.40;2.30;;;;;;;;;;4854837;29;20075;-82
2023/12/27 01:23:48;;;;;;;7.80;2.05;;;;;;;;;;4855324;29;20482;-82
2023/12/27 01:26:18;;;;;;;4.68;1.95;;;;;;;;;;4855346;29;20058;-82
2023/12/27 01:28:48;;;;;;;5.05;2.28;;;;;;;;;;4840223;29;20054;-82
2023/12/27 01:31:18;;;;;;;8.23;2.30;;;;;;;;;;4841133;29;20076;-82
2023/12/27 01:33:48;;;;;;;8.68;2.40;;;;;;;;;;4844556;29;20053;-80
2023/12/27 01:36:22;;;;;;;9.35;2.45;;;;;;;;;;4829537;29;20065;-80
2023/12/27 01:38:53;;;;;;;8.68;2.42;;;;;;;;;;4843449;29;20060;-82
2023/12/27 01:41:25;;;;;;;8.80;3.10;;;;;;;;;;4843864;29;20398;-83
2023/12/27 01:43:56;;;;;;;9.32;2.92;;;;;;;;;;4861130;29;20061;-80
2023/12/27 01:46:26;;;;;;;10.15;3.33;;;;;;;;;;4858947;29;20053;-80
2023/12/27 01:49:00;;;;;;;10.32;3.60;;;;;;;;;;4861500;29;20046;-81
2023/12/27 01:51:31;;;;;;;12.02;3.42;;;;;;;;;;4875952;29;20497;-82
2023/12/27 01:54:02;;;;;;;12.18;3.67;;;;;;;;;;4860088;29;20061;-84
2023/12/27 01:56:32;;;;;;;9.25;3.67;;;;;;;;;;4861748;29;20398;-82
2023/12/27 01:59:04;;;;;;;10.02;3.40;;;;;;;;;;4843913;29;20076;-82
2023/12/27 02:01:35;;;;;;;11.13;3.45;;;;;;;;;;4844460;29;20088;-81
2023/12/27 02:04:08;;;;;;;7.95;2.90;;;;;;;;;;4859827;29;20054;-81
2023/12/27 02:06:40;;;;;;;;;;;;;;;;;;4859269;29;20053;-81
2023/12/27 02:09:10;;;;;;;8.88;2.60;;;;;;;;;;4845157;29;19935;-81
2023/12/27 02:11:41;;;;;;;6.72;2.70;;;;;;;;;;4861828;29;20050;-81
2023/12/27 02:14:12;;;;;;;10.60;3.53;;;;;;;;;;4859768;29;20068;-81
2023/12/27 02:16:44;;;;;;;8.10;3.10;;;;;;;;;;4874523;29;20060;-81
2023/12/27 02:19:22;;;;;;;8.75;3.05;;;;;;;;;;4875279;29;20057;-83
2023/12/27 02:21:53;;;;;;;8.98;3.10;;;;;;;;;;4860942;29;20057;-81
2023/12/27 02:24:34;;;;;;;7.25;2.75;;;;;;;;;;4859396;29;20057;-82
2023/12/27 02:27:05;;;;;;;11.95;3.20;;;;;;;;;;4844286;29;20416;-81
2023/12/27 02:29:35;;;;;;;8.85;3.13;;;;;;;;;;4875178;29;20053;-81
2023/12/27 02:32:08;;;;;;;13.38;3.17;;;;;;;;;;4861553;29;20057;-82
2023/12/27 02:34:39;;;;;;;8.40;2.97;;;;;;;;;;4874378;29;20053;-82
2023/12/27 02:37:11;;;;;;;12.13;3.15;;;;;;;;;;4875201;29;20046;-82
2023/12/27 02:39:41;;;;;;;7.90;2.90;;;;;;;;;;4844583;29;20050;-82
2023/12/27 02:42:11;;;;;;;7.00;2.42;;;;;;;;;;4860252;29;20053;-82
2023/12/27 02:44:41;;;;;;;11.75;2.60;;;;;;;;;;4860883;29;20045;-80
2023/12/27 02:47:11;;;;;;;8.32;3.00;;;;;;;;;;4844666;29;20101;-81
2023/12/27 02:49:41;;;;;;;7.50;2.83;;;;;;;;;;4850053;29;20057;-82
2023/12/27 02:52:12;;;;;;;9.05;3.25;;;;;;;;;;4849364;29;20054;-81
2023/12/27 02:54:42;;;;;;;12.02;4.18;;;;;;;;;;4850624;29;20500;-82
2023/12/27 02:57:13;;;;;;;15.50;4.38;;;;;;;;;;4866919;29;20053;-82
2023/12/27 02:59:44;;;;;;;10.77;4.00;;;;;;;;;;4849481;29;20049;-81
2023/12/27 03:02:14;;;;;;;10.27;4.03;;;;;;;;;;4866942;29;20046;-80
2023/12/27 03:04:45;;;;;;;15.95;4.15;;;;;;;;;;4866643;29;20046;-82
2023/12/27 03:07:19;;;;;;;18.27;4.20;;;;;;;;;;4866767;29;20060;-81
2023/12/27 03:09:51;;;;;;;12.48;4.82;;;;;;;;;;4849160;29;20061;-79
2023/12/27 03:12:23;;;;;;;10.27;4.68;;;;;;;;;;4863799;29;20065;-81
2023/12/27 03:14:53;;;;;;;12.05;4.88;;;;;;;;;;4865330;29;20054;-82
2023/12/27 03:17:24;;;;;;;15.10;5.10;;;;;;;;;;4847520;29;20057;-81
2023/12/27 03:19:54;;;;;;;10.93;4.55;;;;;;;;;;4849096;29;20049;-80
2023/12/27 03:22:25;;;;;;;13.57;4.53;;;;;;;;;;4879653;29;20070;-79
2023/12/27 03:24:57;;;;;;;13.40;4.38;;;;;;;;;;4869318;29;20061;-80
2023/12/27 03:27:29;;;;;;;11.45;3.67;;;;;;;;;;4871621;29;20054;-79
2023/12/27 03:29:59;;;;;;;13.02;4.32;;;;;;;;;;4872735;29;20050;-80
2023/12/27 03:32:30;;;;;;;12.70;4.43;;;;;;;;;;4893644;29;20037;-79
2023/12/27 03:35:00;;;;;;;16.15;6.15;;;;;;;;;;4874504;29;20045;-81
2023/12/27 03:37:32;;;;;;;10.63;4.63;;;;;;;;;;4873679;29;20034;-80
2023/12/27 03:40:02;;;;;;;11.15;4.72;;;;;;;;;;4881612;29;20497;-79
2023/12/27 03:42:32;;;;;;;10.70;4.28;;;;;;;;;;4849899;29;20513;-79
2023/12/27 03:45:02;;;;;;;12.15;5.40;;;;;;;;;;4879663;29;20053;-82
2023/12/27 03:47:32;;;;;;;13.20;4.45;;;;;;;;;;4849356;29;20054;-79
2023/12/27 03:50:02;;;;;;;14.48;5.28;;;;;;;;;;4849720;29;20402;-80
2023/12/27 03:52:34;;;;;;;9.30;4.05;;;;;;;;;;4849626;29;20054;-80
2023/12/27 03:55:05;;;;;;;11.23;4.85;;;;;;;;;;4866909;29;20477;-81
2023/12/27 03:57:37;;;;;;;10.48;4.10;;;;;;;;;;4866809;29;20504;-79
2023/12/27 04:00:10;;;;;;;10.00;3.85;;;;;;;;;;4863493;29;20050;-80
2023/12/27 04:02:45;;;;;;;9.63;4.35;;;;;;;;;;4846761;29;20058;-82
2023/12/27 04:05:16;;;;;;;9.23;3.72;;;;;;;;;;4863446;29;20053;-83
2023/12/27 04:07:47;;;;;;;11.48;3.47;;;;;;;;;;4861923;29;20493;-83
2023/12/27 04:10:17;;;;;;;8.05;3.58;;;;;;;;;;4863243;29;20057;-81
2023/12/27 04:12:48;;;;;;;9.52;3.72;;;;;;;;;;4861804;29;20058;-81
2023/12/27 04:15:18;;;;;;;8.75;3.92;;;;;;;;;;4846047;29;20072;-80
2023/12/27 04:17:49;;;;;;;10.23;3.92;;;;;;;;;;4863064;29;20512;-81
2023/12/27 04:20:19;;;;;;;13.00;3.60;;;;;;;;;;4862596;29;20057;-80
2023/12/27 04:22:50;;;;;;;10.10;3.63;;;;;;;;;;4863077;29;20078;-80
2023/12/27 04:25:21;;;;;;;13.20;4.80;;;;;;;;;;4845788;29;20421;-80
2023/12/27 04:27:51;;;;;;;8.05;3.25;;;;;;;;;;4861265;29;20057;-83
2023/12/27 04:30:21;;;;;;;7.82;3.30;;;;;;;;;;4861712;29;20439;-79
2023/12/27 04:32:51;;;;;;;8.10;3.70;;;;;;;;;;4861844;29;20478;-80
2023/12/27 04:35:21;;;;;;;12.63;3.95;;;;;;;;;;4861601;29;20056;-80
2023/12/27 04:37:52;;;;;;;9.25;3.67;;;;;;;;;;4861047;29;20417;-84
2023/12/27 04:40:25;;;;;;;9.43;3.45;;;;;;;;;;4861173;29;20065;-81
2023/12/27 04:42:55;;;;;;;10.93;3.20;;;;;;;;;;4845650;29;20049;-82
2023/12/27 04:45:26;;;;;;;8.02;2.97;;;;;;;;;;4860885;29;20065;-81
2023/12/27 04:47:59;;;;;;;9.45;3.40;;;;;;;;;;4846071;29;20057;-81
2023/12/27 04:50:29;;;;;;;8.27;3.08;;;;;;;;;;4861002;29;20045;-80
2023/12/27 04:53:00;;;;;;;9.68;2.88;;;;;;;;;;4845192;29;20417;-84
2023/12/27 04:55:31;;;;;;;5.93;2.83;;;;;;;;;;4845737;29;20076;-81
2023/12/27 04:58:01;;;;;;;6.55;2.63;;;;;;;;;;4875821;29;20057;-82
2023/12/27 05:00:33;;;;;;;7.93;3.03;;;;;;;;;;4860913;29;20057;-82
2023/12/27 05:03:05;;;;;;;8.13;3.20;;;;;;;;;;4862374;29;20058;-81
2023/12/27 05:05:40;;;;;;;7.47;2.70;;;;;;;;;;4845775;29;20065;-83
2023/12/27 05:08:10;;;;;;;7.97;3.22;;;;;;;;;;4860826;29;20052;-81
2023/12/27 05:10:42;;;;;;;8.43;3.35;;;;;;;;;;4860226;29;20061;-81
2023/12/27 05:13:14;;;;;;;8.07;3.00;;;;;;;;;;4860481;29;20136;-83
2023/12/27 05:15:45;;;;;;;9.30;3.28;;;;;;;;;;4845109;29;20060;-81
2023/12/27 05:18:15;;;;;;;9.38;3.78;;;;;;;;;;4860544;29;20367;-83
2023/12/27 05:20:45;;;;;;;9.68;3.00;;;;;;;;;;4861906;29;20049;-83
2023/12/27 05:23:18;;;;;;;10.05;3.17;;;;;;;;;;4862473;29;20056;-83
2023/12/27 05:25:49;;;;;;;13.90;3.05;;;;;;;;;;4861990;29;20049;-83
2023/12/27 05:28:19;;;;;;;6.93;3.00;;;;;;;;;;4845668;29;20084;-84
2023/12/27 05:30:49;;;;;;;8.52;3.97;;;;;;;;;;4844664;29;20053;-81
2023/12/27 05:33:20;;;;;;;14.70;5.18;;;;;;;;;;4830442;29;20068;-81
2023/12/27 05:35:53;;;;;;;11.82;4.63;;;;;;;;;;4845103;29;20137;-82
2023/12/27 05:38:26;;;;;;;13.07;4.25;;;;;;;;;;4860352;29;20064;-80
2023/12/27 05:40:57;;;;;;;11.00;3.92;;;;;;;;;;4861014;29;20053;-81
2023/12/27 05:43:27;;;;;;;10.05;4.47;;;;;;;;;;4859304;29;20517;-82
2023/12/27 05:45:58;;;;;;;10.27;4.40;;;;;;;;;;4845561;29;20050;-83
2023/12/27 05:48:28;;;;;;;14.43;4.53;;;;;;;;;;4874937;29;20064;-82
2023/12/27 05:51:00;;;;;;;13.32;4.00;;;;;;;;;;4861831;29;20050;-82
2023/12/27 05:53:30;;;;;;;12.95;4.15;;;;;;;;;;4859832;29;20052;-84
2023/12/27 05:56:02;;;;;;;13.77;4.20;;;;;;;;;;4859174;29;20049;-81
2023/12/27 05:58:33;;;;;;;8.82;3.97;;;;;;;;;;4861317;29;20490;-81
2023/12/27 06:01:03;;;;;;;13.50;4.00;;;;;;;;;;4844413;29;20057;-83
2023/12/27 06:03:33;;;;;;;12.02;3.90;;;;;;;;;;4843586;29;20061;-81
2023/12/27 06:06:04;;;;;;;12.73;4.03;;;;;;;;;;4845281;29;20047;-82
2023/12/27 06:08:35;;;;;;;12.20;3.90;;;;;;;;;;4861206;29;20057;-84
2023/12/27 06:11:11;;;;;;;8.57;3.33;;;;;;;;;;4875589;29;20065;-82
2023/12/27 06:13:42;;;;;;;9.63;3.63;;;;;;;;;;4844825;29;20053;-84
2023/12/27 06:16:16;;;;;;;9.35;3.28;;;;;;;;;;4875107;29;20053;-84
2023/12/27 06:18:46;;;;;;;9.07;3.30;;;;;;;;;;4859337;29;20061;-82
2023/12/27 06:21:18;;;;;;;9.93;3.83;;;;;;;;;;4859445;29;20054;-83
2023/12/27 06:23:50;;;;;;;10.23;3.55;;;;;;;;;;4860543;29;20505;-83
2023/12/27 06:26:22;;;;;;;10.63;3.47;;;;;;;;;;4861407;29;20057;-83
2023/12/27 06:28:53;;;;;;;8.63;3.30;;;;;;;;;;4874565;29;20053;-83
2023/12/27 06:31:24;;;;;;;9.00;3.53;;;;;;;;;;4860712;29;20050;-83
2023/12/27 06:33:56;;;;;;;;;;;;;;;;;;4845298;29;20493;-83
2023/12/27 06:36:27;;;;;;;10.35;4.38;;;;;;;;;;4845548;29;19923;-85
2023/12/27 06:38:58;;;;;;;10.82;3.70;;;;;;;;;;4861268;29;20052;-85
2023/12/27 06:41:29;;;;;;;12.55;3.90;;;;;;;;;;4860091;29;20049;-85
2023/12/27 06:43:59;;;;;;;8.52;3.67;;;;;;;;;;4861016;29;20448;-82
2023/12/27 06:46:30;;;;;;;8.27;3.60;;;;;;;;;;4860757;29;20053;-83
2023/12/27 06:49:01;;;;;;;10.00;3.60;;;;;;;;;;4859037;29;20057;-82
2023/12/27 06:51:33;;;;;;;7.95;3.13;;;;;;;;;;4843729;29;20049;-83
2023/12/27 06:54:03;;;;;;;8.23;3.35;;;;;;;;;;4843538;29;20053;-84
2023/12/27 06:56:38;;;;;;;9.15;3.80;;;;;;;;;;4858610;29;20050;-85
2023/12/27 06:59:08;;;;;;;9.63;3.50;;;;;;;;;;4861221;29;20049;-82
2023/12/27 07:01:42;;;;;;;11.65;3.47;;;;;;;;;;4845087;29;20485;-82
2023/12/27 07:04:13;;;;;;;9.93;3.15;;;;;;;;;;4859120;29;20065;-83
2023/12/27 07:06:44;;;;;;;10.52;3.70;;;;;;;;;;4860667;29;20050;-82
2023/12/27 07:09:17;;;;;;;8.30;3.25;;;;;;;;;;4843292;29;20049;-82
2023/12/27 07:11:50;;;;;;;9.57;3.30;;;;;;;;;;4843840;29;20058;-83
2023/12/27 07:14:21;;;;;;;8.52;3.00;;;;;;;;;;4874798;29;20057;-83
2023/12/27 07:16:52;;;;;;;8.82;3.15;;;;;;;;;;4858255;29;20068;-82
2023/12/27 07:19:22;;;;;;;14.30;2.95;;;;;;;;;;4860922;29;20057;-81
2023/12/27 07:21:53;;;;;;;8.32;3.08;;;;;;;;;;4858565;29;20053;-82
2023/12/27 07:24:23;;;;;;;6.93;2.70;;;;;;;;;;4860269;29;20060;-82
2023/12/27 07:26:54;;;;;;;8.98;2.75;;;;;;;;;;4843765;29;20073;-83
2023/12/27 07:29:24;;;;;;;6.18;2.50;;;;;;;;;;4859248;29;20500;-84
2023/12/27 07:31:54;;;;;;;9.52;3.42;;;;;;;;;;4873935;29;20050;-82
2023/12/27 07:34:24;;;;;;;11.23;4.72;;;;;;;;;;4844398;29;20143;-84
2023/12/27 07:36:54;;;;;;;8.02;3.42;;;;;;;;;;4847464;29;20485;-82
2023/12/27 07:39:25;;;;;;;11.25;4.35;;;;;;;;;;4847015;29;20405;-82
2023/12/27 07:41:56;;;;;;;11.32;4.00;;;;;;;;;;4863994;29;20048;-82
2023/12/27 07:44:28;;;;;;;9.23;3.60;;;;;;;;;;4861481;29;20057;-81
2023/12/27 07:47:00;;;;;;;9.73;3.60;;;;;;;;;;4846947;29;20061;-82
2023/12/27 07:49:31;;;;;;;7.50;3.60;;;;;;;;;;4861642;29;20053;-85
2023/12/27 07:52:01;;;;;;;9.27;4.28;;;;;;;;;;4861925;29;20057;-83
2023/12/27 07:54:31;;;;;;;9.77;3.63;;;;;;;;;;4863498;29;20046;-82
2023/12/27 07:57:01;;;;;;;9.07;3.38;;;;;;;;;;4846940;29;20513;-82
2023/12/27 07:59:32;;;;;;;9.90;4.07;;;;;;;;;;4847336;29;20053;-82
2023/12/27 08:02:03;;;;;;;9.15;3.53;;;;;;;;;;4877938;29;20060;-83
2023/12/27 08:04:34;;;;;;;8.32;2.83;;;;;;;;;;4863515;29;20053;-82
2023/12/27 08:07:05;;;;;;;10.43;3.65;;;;;;;;;;4848230;29;20050;-83
2023/12/27 08:09:36;;;;;;;9.25;3.33;;;;;;;;;;4863168;29;20512;-83
2023/12/27 08:12:09;;;;;;;6.95;3.40;;;;;;;;;;4877317;29;20049;-83
2023/12/27 08:14:40;;;;;;;12.00;3.33;;;;;;;;;;4861288;29;20082;-84
2023/12/27 08:17:10;;;;;;;7.70;3.20;;;;;;;;;;4846192;29;20493;-83
2023/12/27 08:19:40;;;;;;;7.55;3.03;;;;;;;;;;4862925;29;20045;-82
2023/12/27 08:22:12;;;;;;;6.28;2.80;;;;;;;;;;4863273;29;20056;-83
2023/12/27 08:24:42;;;;;;;6.15;2.92;;;;;;;;;;4845907;29;20057;-83
2023/12/27 08:27:13;;;;;;;9.75;3.20;;;;;;;;;;4863647;29;20060;-83
2023/12/27 08:29:44;;;;;;;7.50;2.88;;;;;;;;;;4845727;29;20060;-84
2023/12/27 08:32:14;;;;;;;7.65;2.47;;;;;;;;;;4862350;29;20053;-83
2023/12/27 08:34:44;;;;;;;11.68;2.90;;;;;;;;;;4860697;29;20057;-86
2023/12/27 08:37:15;;;;;;;7.75;2.55;;;;;;;;;;4846137;29;20057;-85
2023/12/27 08:39:45;;;;;;;6.55;2.72;;;;;;;;;;4869501;29;20045;-83
2023/12/27 08:42:16;;;;;;;8.63;3.20;;;;;;;;;;4870260;29;20053;-82
2023/12/27 08:44:46;;;;;;;11.30;3.00;;;;;;;;;;4845194;29;20037;-85
2023/12/27 08:47:16;;;;;;;8.18;3.42;;;;;;;;;;4870326;29;20035;-85
2023/12/27 08:49:48;;;;;;;8.10;2.50;;;;;;;;;;4900531;29;20044;-84
2023/12/27 08:52:19;;;;;;;10.32;2.90;;;;;;;;;;4871150;29;20704;-83
2023/12/27 08:54:49;;;;;;;6.57;2.30;;;;;;;;;;4861874;29;20413;-83
2023/12/27 08:57:20;;;;;;;8.32;2.88;;;;;;;;;;4862047;29;20057;-83
2023/12/27 08:59:50;;;;;;;6.38;2.60;;;;;;;;;;4862623;29;20053;-83
2023/12/27 09:02:21;;;;;;;8.50;3.33;;;;;;;;;;4831045;29;20065;-84
2023/12/27 09:04:51;;;;;;;5.68;2.50;;;;;;;;;;4845548;29;20492;-84
2023/12/27 09:07:21;;;;;;;11.50;3.03;;;;;;;;;;4861426;29;20045;-84
2023/12/27 09:09:51;;;;;;;10.77;3.25;;;;;;;;;;4876167;29;20119;-83
2023/12/27 09:12:24;;;;;;;11.27;3.75;;;;;;;;;;4862227;29;20836;-83
2023/12/27 09:14:54;;;;;;;6.88;2.92;;;;;;;;;;4845404;29;20049;-84
2023/12/27 09:17:25;;;;;;;6.07;2.60;;;;;;;;;;4845551;29;20504;-82
2023/12/27 09:19:55;;;;;;;9.30;2.60;;;;;;;;;;4862106;29;20339;-82
2023/12/27 09:22:25;;;;;;;8.73;2.80;;;;;;;;;;4861779;29;20056;-82
2023/12/27 09:24:56;;;;;;;6.97;2.65;;;;;;;;;;4845931;29;20057;-82
2023/12/27 09:27:26;;;;;;;7.70;2.35;;;;;;;;;;4875873;29;20057;-84
2023/12/27 09:29:57;;;;;;;5.18;2.40;;;;;;;;;;4845975;29;20049;-82
2023/12/27 09:32:30;;;;;;;6.25;2.60;;;;;;;;;;4859583;29;20049;-84
2023/12/27 09:35:01;;;;;;;6.45;2.15;;;;;;;;;;4860147;29;20502;-81
2023/12/27 09:37:31;;;;;;;6.13;1.98;;;;;;;;;;4845363;29;20049;-83
2023/12/27 09:40:03;;;;;;;6.80;1.92;;;;;;;;;;4844594;29;20056;-81
2023/12/27 09:42:36;;;;;;;5.70;2.42;;;;;;;;;;4845049;29;20056;-81
2023/12/27 09:45:11;;;;;;;7.07;2.10;;;;;;;;;;4861572;29;20068;-81
2023/12/27 09:47:44;;;;;;;7.18;2.10;;;;;;;;;;4843979;29;20049;-83
2023/12/27 09:50:15;;;;;;;5.47;2.30;;;;;;;;;;4844567;29;20054;-84
2023/12/27 09:52:48;;;;;;;4.72;2.17;;;;;;;;;;4845478;29;20069;-81
2023/12/27 09:55:19;;;;;;;6.80;2.00;;;;;;;;;;4874185;29;20050;-82
2023/12/27 09:57:50;;;;;;;5.55;2.22;;;;;;;;;;4839517;29;20050;-83
2023/12/27 10:00:27;;;;;;;5.85;2.40;;;;;;;;;;4872504;29;20532;-81
2023/12/27 10:02:59;;;;;;;5.45;2.83;;;;;;;;;;4853512;29;20042;-81
2023/12/27 10:06:08;;;;;;;8.60;2.95;;;;;;;;;;4867348;29;20049;-81
2023/12/27 10:08:40;;;;;;;5.32;2.47;;;;;;;;;;4870687;29;20054;-82
2023/12/27 10:11:11;;;;;;;5.22;2.63;;;;;;;;;;4850856;29;20497;-82
2023/12/27 10:13:43;;;;;;;6.13;2.58;;;;;;;;;;4860475;29;20063;-80
2023/12/27 10:16:14;;;;;;;5.32;2.72;;;;;;;;;;4874353;29;20042;-81
2023/12/27 10:18:47;;;;;;;4.20;2.03;;;;;;;;;;4859454;29;20060;-82
2023/12/27 10:21:19;;;;;;;7.10;2.65;;;;;;;;;;4861498;29;20054;-83
2023/12/27 10:23:50;;;;;;;8.05;2.35;;;;;;;;;;4861066;29;20061;-81
2023/12/27 10:26:20;;;;;;;7.18;2.20;;;;;;;;;;4861564;29;20065;-80
2023/12/27 10:28:51;;;;;;;6.25;2.28;;;;;;;;;;4873934;29;20057;-82
2023/12/27 10:31:24;;;;;;;6.75;2.30;;;;;;;;;;4843692;29;20409;-82
2023/12/27 10:33:55;;;;;;;7.55;2.13;;;;;;;;;;4860979;29;20056;-83
2023/12/27 10:36:27;;;;;;;7.97;2.88;;;;;;;;;;4859628;29;20061;-83
2023/12/27 10:39:02;;;;;;;8.10;2.20;;;;;;;;;;4875066;29;20060;-81
2023/12/27 10:41:37;;;;;;;4.95;2.53;;;;;;;;;;4857386;29;20061;-81
2023/12/27 10:44:07;;;;;;;6.53;2.22;;;;;;;;;;4856509;29;20069;-82
2023/12/27 10:46:39;;;;;;;6.70;2.05;;;;;;;;;;4858451;29;20518;-82
2023/12/27 10:49:15;;;;;;;6.55;2.20;;;;;;;;;;4858962;29;20041;-82
2023/12/27 10:51:48;;;;;;;7.47;2.10;;;;;;;;;;4840743;29;20049;-82
2023/12/27 10:54:21;;;;;;;3.38;2.05;;;;;;;;;;4840265;29;20050;-82
2023/12/27 10:56:53;;;;;;;4.07;2.10;;;;;;;;;;4855936;29;20046;-81
2023/12/27 10:59:24;;;;;;;9.23;1.77;;;;;;;;;;4872309;29;20077;-82
2023/12/27 11:01:55;;;;;;;4.97;1.75;;;;;;;;;;4859083;29;20405;-81
2023/12/27 11:04:26;;;;;;;;;;;;;;;;;;4859001;29;20498;-85
2023/12/27 11:07:01;;;;;;;4.43;1.77;;;;;;;;;;4873084;29;20304;-82
2023/12/27 11:09:33;;;;;;;4.03;1.85;;;;;;;;;;4843536;29;20056;-82
2023/12/27 11:12:06;;;;;;;4.40;1.60;;;;;;;;;;4860511;29;20060;-82
2023/12/27 11:14:38;;;;;;;4.60;1.40;;;;;;;;;;4862088;29;20054;-81
2023/12/27 11:17:10;;;;;;;8.90;1.80;;;;;;;;;;4845665;29;20054;-82
2023/12/27 11:19:44;;;;;;;2.72;1.23;;;;;;;;;;4876107;29;20057;-82
2023/12/27 11:22:14;;;;;;;6.95;1.80;;;;;;;;;;4862345;29;20120;-82
2023/12/27 11:24:48;;;;;;;5.10;1.38;;;;;;;;;;4862967;29;20060;-81
2023/12/27 11:27:20;;;;;;;4.22;1.42;;;;;;;;;;4864650;29;20053;-81
2023/12/27 11:29:50;;;;;;;7.78;1.20;;;;;;;;;;4864122;29;20045;-83
2023/12/27 11:32:20;;;;;;;6.28;1.42;;;;;;;;;;4864148;29;20050;-82
2023/12/27 11:34:50;;;;;;;3.33;1.10;;;;;;;;;;4863798;29;20175;-80
2023/12/27 11:37:22;;;;;;;6.40;1.38;;;;;;;;;;4864049;29;20048;-80
2023/12/27 11:39:53;;;;;;;4.30;1.23;;;;;;;;;;4863804;29;20046;-80
2023/12/27 11:42:24;;;;;;;3.47;1.45;;;;;;;;;;4861809;29;20061;-81
2023/12/27 11:44:57;;;;;;;2.50;0.93;;;;;;;;;;4863243;29;20056;-80
2023/12/27 11:47:28;;;;;;;3.85;1.33;;;;;;;;;;4863807;29;20057;-80
2023/12/27 11:50:10;;;;;;;4.93;1.48;;;;;;;;;;4863422;29;20045;-82
2023/12/27 11:52:49;;;;;;;5.22;1.45;;;;;;;;;;4864132;29;20045;-83
2023/12/27 11:55:33;;;;;;;4.90;1.98;;;;;;;;;;4863605;29;20061;-81
2023/12/27 11:58:03;;;;;;;10.98;1.77;;;;;;;;;;4863620;29;20045;-82
2023/12/27 12:00:36;;;;;;;2.85;1.40;;;;;;;;;;4863284;29;20056;-83
2023/12/27 12:03:17;;;;;;;3.80;1.23;;;;;;;;;;4863925;29;20053;-80
2023/12/27 12:05:58;;;;;;;3.58;1.42;;;;;;;;;;4877305;29;20057;-80
2023/12/27 12:08:36;;;;;;;5.10;1.50;;;;;;;;;;4877539;29;20493;-80
2023/12/27 12:11:12;;;;;;;4.43;1.33;;;;;;;;;;4863665;29;20053;-79
2023/12/27 12:13:43;;;;;;;4.72;1.42;;;;;;;;;;4862915;29;20064;-81
2023/12/27 12:16:13;;;;;;;3.03;1.30;;;;;;;;;;4863119;29;20061;-81
2023/12/27 12:18:44;;;;;;;3.00;1.17;;;;;;;;;;4863338;29;20527;-81
2023/12/27 12:21:15;;;;;;;6.03;1.48;;;;;;;;;;4862468;29;20045;-81
2023/12/27 12:24:35;;;;;;;5.88;1.70;;;;;;;;;;4862174;29;20045;-80
2023/12/27 12:27:07;;;;;;;4.75;1.40;;;;;;;;;;4862767;29;20045;-80
2023/12/27 12:29:37;;;;;;;;;;;;;;;;;;4877618;29;20050;-81
2023/12/27 12:32:07;;;;;;;2.83;1.58;;;;;;;;;;4861517;29;19924;-81
2023/12/27 12:34:40;;;;;;;3.85;1.80;;;;;;;;;;4861777;29;20057;-82
2023/12/27 12:37:11;;;;;;;3.40;1.25;;;;;;;;;;4863069;29;20056;-84
2023/12/27 12:39:42;;;;;;;4.40;2.42;;;;;;;;;;4877370;29;20394;-80
2023/12/27 12:42:13;;;;;;;4.10;1.63;;;;;;;;;;4862207;29;20053;-83
2023/12/27 12:44:44;;;;;;;4.97;2.05;;;;;;;;;;4863877;29;20041;-81
2023/12/27 12:47:15;;;;;;;5.40;1.23;;;;;;;;;;4862812;29;20049;-81
2023/12/27 12:49:45;;;;;;;16.38;11.35;;;;;;;;;;4859797;29;20439;-83
2023/12/27 12:52:16;;;;;;;10.07;5.80;;;;;;;;;;4858328;29;20052;-82
2023/12/27 12:54:48;;;;;;;6.43;2.53;;;;;;;;;;4861430;29;20041;-81
2023/12/27 12:57:20;;;;;;;2.67;1.20;;;;;;;;;;4875512;29;20068;-82
2023/12/27 12:59:50;;;;;;;3.83;1.13;;;;;;;;;;4862111;29;20509;-81
2023/12/27 13:02:21;;;;;;;5.80;1.40;;;;;;;;;;4862078;29;20041;-81
2023/12/27 13:04:52;;;;;;;3.00;1.05;;;;;;;;;;4859691;29;20049;-80
2023/12/27 13:07:27;;;;;;;3.67;1.33;;;;;;;;;;4860502;29;20060;-81
2023/12/27 13:09:59;;;;;;;1.65;0.90;;;;;;;;;;4862570;29;20049;-81
2023/12/27 13:12:31;;;;;;;5.28;1.20;;;;;;;;;;4861603;29;20053;-81
2023/12/27 13:15:01;;;;;;;5.35;1.35;;;;;;;;;;4861650;29;20050;-80
2023/12/27 13:17:31;;;;;;;2.92;1.13;;;;;;;;;;4861854;29;20041;-80
2023/12/27 13:20:04;;;;;;;3.50;1.17;;;;;;;;;;4861617;29;20068;-79
2023/12/27 13:22:35;;;;;;;4.95;1.30;;;;;;;;;;4860092;29;20057;-82
2023/12/27 13:25:05;;;;;;;3.25;1.30;;;;;;;;;;4875172;29;20045;-79
2023/12/27 13:27:35;;;;;;;7.38;1.30;;;;;;;;;;4862115;29;20504;-81
2023/12/27 13:30:06;;;;;;;6.78;1.45;;;;;;;;;;4862956;29;20397;-80
2023/12/27 13:32:37;;;;;;;4.60;1.20;;;;;;;;;;4862202;29;20057;-81
2023/12/27 13:35:07;;;;;;;3.25;0.80;;;;;;;;;;4875931;29;20111;-80
2023/12/27 13:37:37;;;;;;;2.80;0.95;;;;;;;;;;4862079;29;20049;-81
2023/12/27 13:40:08;;;;;;;2.05;0.90;;;;;;;;;;4860737;29;20056;-80
2023/12/27 13:42:40;;;;;;;3.47;1.33;;;;;;;;;;4860995;29;20033;-80
2023/12/27 13:45:11;;;;;;;9.23;6.55;;;;;;;;;;4860947;29;20047;-80
2023/12/27 13:47:42;;;;;;;1.88;0.90;;;;;;;;;;4861711;29;20052;-79
2023/12/27 13:50:12;;;;;;;5.63;1.30;;;;;;;;;;4861858;29;20417;-79
2023/12/27 13:52:47;;;;;;;2.88;1.30;;;;;;;;;;4860157;29;20060;-82
2023/12/27 13:55:21;;;;;;;4.85;1.10;;;;;;;;;;4861204;29;20053;-80
2023/12/27 13:57:51;;;;;;;3.78;1.10;;;;;;;;;;4861447;29;20041;-80
2023/12/27 14:00:22;;;;;;;3.00;0.80;;;;;;;;;;4861862;29;20069;-79
2023/12/27 14:02:52;;;;;;;4.53;1.20;;;;;;;;;;4860980;29;20409;-80
2023/12/27 14:05:22;;;;;;;2.60;0.88;;;;;;;;;;4861846;29;20060;-80
2023/12/27 14:07:52;;;;;;;7.32;1.40;;;;;;;;;;4851651;29;20061;-80
2023/12/27 14:10:24;;;;;;;7.50;0.90;;;;;;;;;;4868075;29;20493;-79
2023/12/27 14:12:56;;;;;;;2.05;0.90;;;;;;;;;;4884517;29;20061;-80
2023/12/27 14:15:26;;;;;;;4.32;1.42;;;;;;;;;;4878004;29;20064;-80
2023/12/27 14:17:56;;;;;;;3.45;1.10;;;;;;;;;;4883717;29;20029;-80
2023/12/27 14:20:27;;;;;;;3.50;0.95;;;;;;;;;;4862571;29;20060;-81
2023/12/27 14:22:57;;;;;;;4.88;1.20;;;;;;;;;;4874931;29;20553;-80
2023/12/27 14:25:30;;;;;;;2.03;0.90;;;;;;;;;;4860342;29;20058;-81
2023/12/27 14:28:06;;;;;;;3.58;0.88;;;;;;;;;;4862280;29;20056;-81
2023/12/27 14:30:36;;;;;;;5.70;1.20;;;;;;;;;;4876295;29;20057;-80
2023/12/27 14:33:07;;;;;;;6.35;1.17;;;;;;;;;;4862762;29;20050;-80
2023/12/27 14:35:38;;;;;;;6.13;0.90;;;;;;;;;;4862018;29;20489;-81
2023/12/27 14:38:08;;;;;;;2.65;1.10;;;;;;;;;;4861646;29;20068;-82
2023/12/27 14:40:38;;;;;;;2.53;0.90;;;;;;;;;;4877185;29;20049;-81
2023/12/27 14:43:08;;;;;;;4.47;1.23;;;;;;;;;;4861241;29;20050;-80
2023/12/27 14:45:39;;;;;;;5.93;1.55;;;;;;;;;;4860368;29;20060;-81
2023/12/27 14:48:08;;;;;;;6.43;1.10;;;;;;;;;;4861823;29;20056;-83
2023/12/27 14:50:39;;;;;;;2.42;1.13;;;;;;;;;;4862218;29;20068;-80
2023/12/27 14:53:09;;;;;;;5.07;1.52;;;;;;;;;;4860360;29;20050;-80
2023/12/27 14:55:40;;;;;;;1.23;0.70;;;;;;;;;;4860111;29;20064;-79
2023/12/27 14:58:10;;;;;;;5.30;1.40;;;;;;;;;;4861376;29;20497;-79
2023/12/27 15:00:41;;;;;;;2.13;0.88;;;;;;;;;;4860393;29;20567;-79
2023/12/27 15:03:11;;;;;;;3.70;1.08;;;;;;;;;;4861873;29;20042;-81
2023/12/27 15:05:43;;;;;;;2.10;1.05;;;;;;;;;;4859873;29;20069;-80
2023/12/27 15:08:14;;;;;;;1.80;1.08;;;;;;;;;;4861419;29;20069;-81